Highland Park, Louisiana
Current Conditions -  °F | °C
As of 11:53 AM on Tuesday 21 Oct 2014 (Local Time) from KMLU Reporting Station
Clear Clear  
Wind Chill: 75°   Ceiling: Unl
Heat Index: 75°   Visibility: 10mi
Dew Point: 58°   Wind: 6mph
Humidity: 55%   Direction: 40°NE
Pressure: 30.12"   Gusts: NA
Location:  32.5473°N, 92.2007°W
Report Text: KMLU 211653Z 04005KT 10SM CLR 24/14 A3012 RMK AO2 SLP197 T02390144
Loading
Personal Weather Stations






























Interactive Weather Map New forecast layout! Learn more

10-Day Weather Forecast

Advertisements
Track Severe Weather on mobile